createdAt,value
2022-10-02T00:01:34.490Z,22.09
2022-10-02T00:04:01.456Z,22.05
2022-10-02T00:06:28.497Z,22.20
2022-10-02T00:08:55.334Z,22.23
2022-10-02T00:11:22.513Z,19.79
2022-10-02T00:13:49.251Z,18.04
2022-10-02T00:16:16.084Z,17.86
2022-10-02T00:18:43.028Z,19.42
2022-10-02T00:21:09.782Z,20.42
2022-10-02T00:23:36.538Z,21.14
2022-10-02T00:26:03.290Z,21.28
2022-10-02T00:28:30.332Z,21.33
2022-10-02T00:30:57.116Z,21.52
2022-10-02T00:33:23.897Z,21.77
2022-10-02T00:35:50.637Z,21.71
2022-10-02T00:38:17.396Z,21.77
2022-10-02T00:40:44.159Z,21.88
2022-10-02T00:43:11.248Z,22.12
2022-10-02T00:45:38.063Z,22.09
2022-10-02T00:48:04.855Z,22.15
2022-10-02T00:50:31.594Z,18.85
2022-10-02T00:52:58.337Z,17.17
2022-10-02T00:55:25.091Z,18.35
2022-10-02T00:57:51.850Z,19.59
2022-10-02T01:00:18.614Z,20.63
2022-10-02T01:02:45.737Z,20.97
2022-10-02T01:05:13.446Z,21.35
2022-10-02T01:07:40.294Z,21.40
2022-10-02T01:10:07.110Z,21.44
2022-10-02T01:12:33.893Z,21.60
2022-10-02T01:15:00.840Z,21.61
2022-10-02T01:17:27.615Z,21.82
2022-10-02T01:19:54.385Z,21.98
2022-10-02T01:22:21.338Z,22.09
2022-10-02T01:24:48.148Z,22.01
2022-10-02T01:27:14.918Z,22.11
2022-10-02T01:29:41.657Z,19.10
2022-10-02T01:32:08.434Z,17.29
2022-10-02T01:34:35.172Z,17.77
2022-10-02T01:37:02.906Z,19.48
2022-10-02T01:39:29.684Z,20.49
2022-10-02T01:41:56.524Z,20.86
2022-10-02T01:44:23.275Z,21.07
2022-10-02T01:46:50.228Z,21.32
2022-10-02T01:49:16.979Z,21.49
2022-10-02T01:51:44.526Z,21.44
2022-10-02T01:54:11.288Z,21.68
2022-10-02T01:56:38.417Z,21.86
2022-10-02T01:59:05.545Z,21.97
2022-10-02T02:01:32.374Z,22.00
2022-10-02T02:03:59.162Z,22.15
2022-10-02T02:06:25.933Z,22.15
2022-10-02T02:08:52.684Z,21.65
2022-10-02T02:11:19.440Z,18.33
2022-10-02T02:13:46.248Z,16.81
2022-10-02T02:16:13.030Z,18.63
2022-10-02T02:18:39.927Z,19.95
2022-10-02T02:21:06.685Z,20.75
2022-10-02T02:23:33.483Z,21.10
2022-10-02T02:26:00.262Z,21.13
2022-10-02T02:28:27.093Z,21.41
2022-10-02T02:30:53.978Z,21.55
2022-10-02T02:33:20.726Z,21.65
2022-10-02T02:35:47.741Z,21.73
2022-10-02T02:38:14.793Z,21.83
2022-10-02T02:40:41.616Z,21.84
2022-10-02T02:43:08.356Z,21.92
2022-10-02T02:45:35.190Z,22.06
2022-10-02T02:48:01.986Z,22.03
2022-10-02T02:50:29.125Z,19.27
2022-10-02T02:52:55.879Z,17.76
2022-10-02T02:55:22.622Z,18.31
2022-10-02T02:57:49.382Z,19.68
2022-10-02T03:00:16.241Z,20.45
2022-10-02T03:02:42.999Z,21.15
2022-10-02T03:05:09.745Z,21.38
2022-10-02T03:07:36.529Z,21.59
2022-10-02T03:10:03.301Z,21.60
2022-10-02T03:12:30.097Z,21.63
2022-10-02T03:14:56.883Z,21.83
2022-10-02T03:17:23.777Z,22.04
2022-10-02T03:19:50.528Z,21.99
2022-10-02T03:22:17.290Z,21.91
2022-10-02T03:24:44.033Z,22.09
2022-10-02T03:27:10.813Z,22.19
2022-10-02T03:29:37.577Z,19.31
2022-10-02T03:32:04.337Z,17.53
2022-10-02T03:34:31.088Z,17.92
2022-10-02T03:36:57.868Z,19.60
2022-10-02T03:39:25.914Z,20.46
2022-10-02T03:41:52.941Z,20.90
2022-10-02T03:44:19.718Z,21.14
2022-10-02T03:46:46.528Z,21.36
2022-10-02T03:49:13.317Z,21.56
2022-10-02T03:51:40.104Z,21.73
2022-10-02T03:54:06.876Z,21.83
2022-10-02T03:56:33.807Z,21.97
2022-10-02T03:59:00.714Z,21.93
2022-10-02T04:01:27.495Z,21.95
2022-10-02T04:03:54.300Z,22.10
2022-10-02T04:06:21.304Z,19.41
2022-10-02T04:08:48.044Z,17.51
2022-10-02T04:11:14.805Z,17.63
2022-10-02T04:13:41.580Z,19.42
2022-10-02T04:16:08.410Z,20.37
2022-10-02T04:18:35.283Z,20.87
2022-10-02T04:21:02.111Z,21.28
2022-10-02T04:23:28.851Z,21.49
2022-10-02T04:25:55.601Z,21.56
2022-10-02T04:28:22.621Z,21.56
2022-10-02T04:30:49.398Z,21.94
2022-10-02T04:33:16.212Z,21.84
2022-10-02T04:35:42.965Z,22.03
2022-10-02T04:38:09.732Z,21.90
2022-10-02T04:40:36.517Z,21.96
2022-10-02T04:43:03.302Z,21.28
2022-10-02T04:45:30.185Z,18.06
2022-10-02T04:47:56.980Z,17.62
2022-10-02T04:50:23.801Z,19.70
2022-10-02T04:52:50.543Z,20.44
2022-10-02T04:55:17.290Z,20.95
2022-10-02T04:57:44.053Z,21.11
2022-10-02T05:00:10.840Z,21.45
2022-10-02T05:02:37.619Z,21.64
2022-10-02T05:05:04.389Z,21.62
2022-10-02T05:07:31.143Z,21.71
2022-10-02T05:09:58.375Z,21.80
2022-10-02T05:12:25.163Z,21.91
2022-10-02T05:14:51.963Z,22.15
2022-10-02T05:17:18.708Z,22.01
2022-10-02T05:19:45.462Z,18.49
2022-10-02T05:22:13.772Z,17.68
2022-10-02T05:24:40.519Z,19.24
2022-10-02T05:27:07.413Z,20.38
2022-10-02T05:29:34.156Z,21.11
2022-10-02T05:32:00.924Z,21.31
2022-10-02T05:34:27.706Z,21.47
2022-10-02T05:36:54.454Z,21.61
2022-10-02T05:39:21.213Z,21.74
2022-10-02T05:41:47.981Z,21.78
2022-10-02T05:44:14.725Z,21.82
2022-10-02T05:46:41.641Z,22.13
2022-10-02T05:49:08.535Z,22.12
2022-10-02T05:51:36.765Z,21.80
2022-10-02T05:54:03.515Z,18.55
2022-10-02T05:56:30.309Z,17.03
2022-10-02T05:58:57.057Z,18.79
2022-10-02T06:01:23.940Z,20.12
2022-10-02T06:03:50.744Z,20.85
2022-10-02T06:06:17.572Z,21.21
2022-10-02T06:08:44.569Z,21.41
2022-10-02T06:11:11.350Z,21.36
2022-10-02T06:13:38.824Z,21.63
2022-10-02T06:16:05.613Z,21.81
2022-10-02T06:18:33.164Z,21.73
2022-10-02T06:20:59.921Z,21.90
2022-10-02T06:23:26.697Z,21.93
2022-10-02T06:25:53.520Z,22.00
2022-10-02T06:28:20.330Z,21.98
2022-10-02T06:30:47.169Z,20.81
2022-10-02T06:33:13.959Z,17.86
2022-10-02T06:35:42.960Z,16.99
2022-10-02T06:38:10.602Z,19.05
2022-10-02T06:40:37.360Z,20.07
2022-10-02T06:43:04.148Z,20.83
2022-10-02T06:45:31.955Z,21.20
2022-10-02T06:47:59.054Z,21.33
2022-10-02T06:50:27.920Z,21.44
2022-10-02T06:52:54.689Z,21.41
2022-10-02T06:55:21.601Z,21.75
2022-10-02T06:57:48.423Z,21.80
2022-10-02T07:00:17.975Z,21.93
2022-10-02T07:02:44.748Z,21.97
2022-10-02T07:05:11.498Z,22.03
2022-10-02T07:07:38.800Z,22.12
2022-10-02T07:10:06.513Z,19.94
2022-10-02T07:12:33.330Z,17.85
2022-10-02T07:15:00.239Z,17.41
2022-10-02T07:17:27.415Z,19.26
2022-10-02T07:19:54.167Z,20.26
2022-10-02T07:22:43.302Z,20.91
2022-10-02T07:25:07.663Z,21.16
2022-10-02T07:27:34.399Z,21.43
2022-10-02T07:30:01.156Z,21.45
2022-10-02T07:32:28.100Z,21.68
2022-10-02T07:34:54.856Z,21.68
2022-10-02T07:37:22.090Z,21.74
2022-10-02T07:39:48.858Z,21.84
2022-10-02T07:42:15.626Z,22.00
2022-10-02T07:44:42.374Z,22.03
2022-10-02T07:47:09.185Z,20.53
2022-10-02T07:49:36.725Z,17.96
2022-10-02T07:52:03.507Z,17.43
2022-10-02T07:54:30.309Z,19.48
2022-10-02T07:56:57.053Z,20.38
2022-10-02T07:59:24.057Z,20.90
2022-10-02T08:01:50.899Z,21.20
2022-10-02T08:04:18.667Z,21.53
2022-10-02T08:06:46.992Z,21.46
2022-10-02T08:09:13.759Z,21.65
2022-10-02T08:11:40.516Z,21.66
2022-10-02T08:14:07.424Z,21.92
2022-10-02T08:16:34.550Z,21.90
2022-10-02T08:19:01.694Z,21.98
2022-10-02T08:21:28.433Z,22.08
2022-10-02T08:23:55.272Z,20.85
2022-10-02T08:26:22.034Z,18.40
2022-10-02T08:28:48.781Z,18.56
2022-10-02T08:31:16.156Z,20.29
2022-10-02T08:33:43.195Z,21.08
2022-10-02T08:36:10.041Z,21.32
2022-10-02T08:38:36.829Z,21.42
2022-10-02T08:41:04.936Z,21.58
2022-10-02T08:43:31.717Z,21.89
2022-10-02T08:46:02.335Z,21.91
2022-10-02T08:48:29.203Z,22.01
2022-10-02T08:50:55.999Z,21.98
2022-10-02T08:53:22.771Z,21.95
2022-10-02T08:55:50.588Z,18.83
2022-10-02T08:58:17.348Z,18.51
2022-10-02T09:00:44.476Z,19.86
2022-10-02T09:03:11.274Z,20.90
2022-10-02T09:05:40.430Z,21.32
2022-10-02T09:08:08.979Z,21.46
2022-10-02T09:10:35.726Z,21.85
2022-10-02T09:13:02.504Z,21.90
2022-10-02T09:15:29.269Z,21.97
2022-10-02T09:17:56.017Z,21.99
2022-10-02T09:20:22.763Z,21.98
2022-10-02T09:22:49.766Z,22.03
2022-10-02T09:25:16.536Z,19.31
2022-10-02T09:27:43.601Z,18.48
2022-10-02T09:30:10.357Z,19.43
2022-10-02T09:32:42.177Z,20.82
2022-10-02T09:35:08.987Z,21.21
2022-10-02T09:37:35.938Z,21.54
2022-10-02T09:40:02.788Z,21.76
2022-10-02T09:42:29.548Z,21.83
2022-10-02T09:45:01.441Z,21.88
2022-10-02T09:47:28.404Z,21.94
2022-10-02T09:49:57.317Z,22.08
2022-10-02T09:52:24.102Z,22.01
2022-10-02T09:54:50.883Z,19.82
2022-10-02T09:57:17.679Z,18.43
2022-10-02T09:59:44.537Z,18.79
2022-10-02T10:02:11.297Z,20.58
2022-10-02T10:05:04.122Z,20.92
2022-10-02T10:07:25.585Z,21.28
2022-10-02T10:09:52.331Z,21.68
2022-10-02T10:12:19.061Z,21.67
2022-10-02T10:14:45.885Z,21.97
2022-10-02T10:17:13.329Z,21.85
2022-10-02T10:19:40.094Z,22.00
2022-10-02T10:22:06.869Z,22.15
2022-10-02T10:24:33.621Z,19.10
2022-10-02T10:27:00.370Z,18.29
2022-10-02T10:29:27.125Z,19.36
2022-10-02T10:31:53.915Z,20.73
2022-10-02T10:34:20.716Z,21.18
2022-10-02T10:37:06.245Z,21.58
2022-10-02T10:39:32.998Z,21.62
2022-10-02T10:42:01.046Z,21.73
2022-10-02T10:44:27.822Z,21.76
2022-10-02T10:46:54.747Z,21.84
2022-10-02T10:49:21.579Z,21.91
2022-10-02T10:51:48.405Z,21.97
2022-10-02T10:54:15.151Z,19.04
2022-10-02T10:56:42.625Z,18.44
2022-10-02T10:59:09.388Z,19.78
2022-10-02T11:01:38.452Z,20.93
2022-10-02T11:04:05.384Z,21.29
2022-10-02T11:06:32.201Z,21.47
2022-10-02T11:08:59.081Z,21.55
2022-10-02T11:11:27.798Z,21.93
2022-10-02T11:13:54.591Z,21.97
2022-10-02T11:16:21.414Z,21.92
2022-10-02T11:18:48.193Z,22.13
2022-10-02T11:21:15.068Z,21.33
2022-10-02T11:23:41.808Z,18.74
2022-10-02T11:26:08.552Z,18.54
2022-10-02T11:28:35.317Z,20.19
2022-10-02T11:31:02.077Z,20.87
2022-10-02T11:33:28.826Z,21.28
2022-10-02T11:35:56.176Z,21.38
2022-10-02T11:38:23.332Z,21.60
2022-10-02T11:40:50.674Z,21.80
2022-10-02T11:43:17.429Z,21.75
2022-10-02T11:45:44.477Z,21.98
2022-10-02T11:48:12.246Z,22.04
2022-10-02T11:50:39.642Z,22.01
2022-10-02T11:53:06.393Z,18.86
2022-10-02T11:55:33.147Z,18.32
2022-10-02T11:58:00.408Z,19.73
2022-10-02T12:00:27.160Z,20.72
2022-10-02T12:02:54.076Z,21.25
2022-10-02T12:05:21.661Z,21.44
2022-10-02T12:07:48.463Z,21.64
2022-10-02T12:10:15.206Z,21.69
2022-10-02T12:12:41.989Z,21.83
2022-10-02T12:15:08.790Z,21.86
2022-10-02T12:17:35.584Z,21.97
2022-10-02T12:20:21.173Z,22.17
2022-10-02T12:23:06.530Z,20.91
2022-10-02T12:25:51.895Z,18.63
2022-10-02T12:28:20.075Z,18.93
2022-10-02T12:30:46.886Z,20.50
2022-10-02T12:33:14.484Z,21.24
2022-10-02T12:35:42.437Z,21.45
2022-10-02T12:38:09.186Z,21.72
2022-10-02T12:40:35.960Z,21.85
2022-10-02T12:43:02.701Z,21.99
2022-10-02T12:45:30.845Z,21.83
2022-10-02T12:47:57.648Z,22.13
2022-10-02T12:50:24.424Z,22.29
2022-10-02T12:52:51.693Z,20.43
2022-10-02T12:55:18.452Z,18.59
2022-10-02T12:57:58.659Z,18.45
2022-10-02T13:00:25.480Z,20.54
2022-10-02T13:03:07.367Z,21.16
2022-10-02T13:05:34.405Z,21.58
2022-10-02T13:08:01.151Z,21.68
2022-10-02T13:10:27.892Z,21.79
2022-10-02T13:12:54.664Z,21.94
2022-10-02T13:15:21.968Z,21.97
2022-10-02T13:17:48.806Z,22.03
2022-10-02T13:20:15.553Z,22.19
2022-10-02T13:22:42.288Z,19.16
2022-10-02T13:25:09.033Z,18.70
2022-10-02T13:27:36.384Z,19.61
2022-10-02T13:30:03.220Z,20.85
2022-10-02T13:32:31.859Z,21.08
2022-10-02T13:34:58.637Z,21.56
2022-10-02T13:37:25.577Z,21.66
2022-10-02T13:39:52.333Z,21.92
2022-10-02T13:42:19.225Z,21.89
2022-10-02T13:44:48.646Z,21.98
2022-10-02T13:47:15.425Z,22.09
2022-10-02T13:49:42.415Z,21.95
2022-10-02T13:52:09.829Z,19.32
2022-10-02T13:54:37.347Z,17.92
2022-10-02T13:57:05.052Z,19.06
2022-10-02T13:59:32.359Z,20.19
2022-10-02T14:01:59.131Z,20.95
2022-10-02T14:04:27.273Z,21.31
2022-10-02T14:06:54.029Z,21.60
2022-10-02T14:09:20.820Z,21.52
2022-10-02T14:11:48.035Z,21.67
2022-10-02T14:14:14.790Z,21.92
2022-10-02T14:16:41.610Z,21.91
2022-10-02T14:19:08.657Z,22.08
2022-10-02T14:21:35.716Z,21.48
2022-10-02T14:24:02.785Z,18.77
2022-10-02T14:26:29.801Z,18.43
2022-10-02T14:28:56.588Z,19.95
2022-10-02T14:31:23.481Z,20.75
2022-10-02T14:33:50.311Z,21.23
2022-10-02T14:36:18.096Z,21.38
2022-10-02T14:38:44.869Z,21.56
2022-10-02T14:41:11.641Z,21.88
2022-10-02T14:43:38.388Z,21.87
2022-10-02T14:46:05.228Z,21.92
2022-10-02T14:48:32.139Z,22.02
2022-10-02T14:50:58.893Z,22.06
2022-10-02T14:53:25.658Z,21.18
2022-10-02T14:55:52.422Z,19.21
2022-10-02T14:58:19.225Z,18.71
2022-10-02T15:00:46.008Z,20.38
2022-10-02T15:03:12.806Z,21.08
2022-10-02T15:05:39.577Z,21.40
2022-10-02T15:08:06.322Z,21.73
2022-10-02T15:10:33.112Z,21.79
2022-10-02T15:13:03.594Z,21.81
2022-10-02T15:15:31.826Z,21.94
2022-10-02T15:18:00.256Z,22.14
2022-10-02T15:20:27.157Z,20.18
2022-10-02T15:22:53.910Z,18.50
2022-10-02T15:25:20.803Z,18.44
2022-10-02T15:27:47.633Z,20.35
2022-10-02T15:30:15.134Z,20.97
2022-10-02T15:32:41.913Z,21.41
2022-10-02T15:35:08.659Z,21.68
2022-10-02T15:37:35.405Z,21.74
2022-10-02T15:40:05.222Z,21.82
2022-10-02T15:42:31.981Z,21.98
2022-10-02T15:44:58.732Z,22.07
2022-10-02T15:47:25.714Z,22.11
2022-10-02T15:49:52.461Z,22.12
2022-10-02T15:52:19.280Z,21.95
2022-10-02T15:54:46.128Z,18.97
2022-10-02T15:57:13.023Z,18.45
2022-10-02T15:59:39.785Z,19.82
2022-10-02T16:02:06.678Z,20.76
2022-10-02T16:04:33.487Z,21.34
2022-10-02T16:07:00.406Z,21.56
2022-10-02T16:09:27.181Z,21.81
2022-10-02T16:11:54.075Z,21.85
2022-10-02T16:14:20.832Z,21.89
2022-10-02T16:16:47.704Z,22.03
2022-10-02T16:19:14.503Z,22.09
2022-10-02T16:21:41.349Z,19.14
2022-10-02T16:24:08.123Z,17.90
2022-10-02T16:26:35.382Z,18.99
2022-10-02T16:29:02.434Z,20.36
2022-10-02T16:31:29.960Z,20.96
2022-10-02T16:33:56.789Z,21.27
2022-10-02T16:36:29.801Z,21.53
2022-10-02T16:38:56.577Z,21.59
2022-10-02T16:41:24.378Z,21.73
2022-10-02T16:43:52.676Z,21.86
2022-10-02T16:46:19.453Z,21.82
2022-10-02T16:48:46.192Z,21.94
2022-10-02T16:51:12.999Z,22.20
2022-10-02T16:53:39.829Z,19.39
2022-10-02T16:56:06.677Z,17.85
2022-10-02T16:58:33.441Z,18.14
2022-10-02T17:01:01.930Z,19.62
2022-10-02T17:03:28.951Z,20.48
2022-10-02T17:05:55.717Z,21.11
2022-10-02T17:08:22.698Z,21.38
2022-10-02T17:10:50.268Z,21.32
2022-10-02T17:13:17.096Z,21.54
2022-10-02T17:15:46.936Z,21.63
2022-10-02T17:18:13.848Z,21.74
2022-10-02T17:20:40.602Z,21.81
2022-10-02T17:23:07.381Z,21.79
2022-10-02T17:25:34.199Z,22.01
2022-10-02T17:28:01.132Z,22.10
2022-10-02T17:30:28.807Z,20.62
2022-10-02T17:32:56.629Z,18.41
2022-10-02T17:35:23.690Z,17.85
2022-10-02T17:37:50.437Z,19.58
2022-10-02T17:40:17.232Z,20.62
2022-10-02T17:42:43.964Z,20.95
2022-10-02T17:45:10.736Z,21.28
2022-10-02T17:47:37.568Z,21.47
2022-10-02T17:50:04.336Z,21.52
2022-10-02T17:52:49.925Z,21.73
2022-10-02T17:55:35.244Z,21.85
2022-10-02T17:58:02.122Z,21.94
2022-10-02T18:00:28.941Z,21.95
2022-10-02T18:02:55.745Z,22.11
2022-10-02T18:05:22.596Z,22.07
2022-10-02T18:07:51.903Z,19.18
2022-10-02T18:10:18.652Z,17.94
2022-10-02T18:12:45.442Z,18.53
2022-10-02T18:15:12.212Z,19.78
2022-10-02T18:17:39.877Z,20.85
2022-10-02T18:20:06.650Z,21.10
2022-10-02T18:22:33.418Z,21.41
2022-10-02T18:25:00.265Z,21.54
2022-10-02T18:27:27.068Z,21.53
2022-10-02T18:29:53.841Z,21.77
2022-10-02T18:32:20.845Z,21.75
2022-10-02T18:34:47.709Z,21.92
2022-10-02T18:37:14.461Z,21.94
2022-10-02T18:39:41.736Z,22.04
2022-10-02T18:42:08.531Z,20.30
2022-10-02T18:44:35.397Z,18.22
2022-10-02T18:47:03.049Z,17.58
2022-10-02T18:49:29.824Z,19.28
2022-10-02T18:51:56.995Z,20.37
2022-10-02T18:54:24.734Z,20.99
2022-10-02T18:56:51.814Z,21.33
2022-10-02T18:59:18.576Z,21.36
2022-10-02T19:01:45.514Z,21.62
2022-10-02T19:04:12.322Z,21.78
2022-10-02T19:06:39.090Z,21.71
2022-10-02T19:09:05.907Z,21.78
2022-10-02T19:11:32.720Z,21.80
2022-10-02T19:14:02.097Z,21.83
2022-10-02T19:16:30.000Z,22.12
2022-10-02T19:18:56.864Z,22.03
2022-10-02T19:21:23.737Z,19.67
2022-10-02T19:23:50.489Z,17.94
2022-10-02T19:26:17.264Z,17.98
2022-10-02T19:28:45.461Z,19.41
2022-10-02T19:31:13.301Z,20.33
2022-10-02T19:33:41.987Z,20.91
2022-10-02T19:36:10.721Z,21.19
2022-10-02T19:38:37.476Z,21.58
2022-10-02T19:41:04.937Z,21.51
2022-10-02T19:43:32.358Z,21.56
2022-10-02T19:45:59.240Z,22.00
2022-10-02T19:48:26.025Z,21.77
2022-10-02T19:50:52.933Z,21.98
2022-10-02T19:53:19.673Z,21.89
2022-10-02T19:55:46.443Z,22.06
2022-10-02T19:58:14.031Z,22.05
2022-10-02T20:00:40.778Z,19.07
2022-10-02T20:03:07.549Z,17.84
2022-10-02T20:05:34.302Z,18.67
2022-10-02T20:08:06.441Z,19.85
2022-10-02T20:10:33.742Z,20.72
2022-10-02T20:13:00.509Z,21.03
2022-10-02T20:15:47.566Z,21.33
2022-10-02T20:18:14.470Z,21.53
2022-10-02T20:20:41.242Z,21.60
2022-10-02T20:23:08.085Z,21.68
2022-10-02T20:25:34.829Z,21.77
2022-10-02T20:28:02.326Z,21.86
2022-10-02T20:30:29.178Z,22.06
2022-10-02T20:32:55.980Z,22.06
2022-10-02T20:35:22.791Z,22.18
2022-10-02T20:37:49.576Z,19.29
2022-10-02T20:40:16.347Z,17.79
2022-10-02T20:42:43.111Z,18.49
2022-10-02T20:45:09.917Z,19.68
2022-10-02T20:47:36.710Z,20.45
2022-10-02T20:50:04.388Z,21.02
2022-10-02T20:52:34.304Z,21.42
2022-10-02T20:55:01.064Z,21.55
2022-10-02T20:57:49.272Z,21.60
2022-10-02T21:00:15.808Z,21.58
2022-10-02T21:02:42.713Z,21.87
2022-10-02T21:05:09.453Z,21.70
2022-10-02T21:07:37.090Z,21.91
2022-10-02T21:10:03.848Z,21.89
2022-10-02T21:12:30.601Z,22.05
2022-10-02T21:14:57.390Z,22.09
2022-10-02T21:17:24.163Z,19.17
2022-10-02T21:19:52.040Z,17.99
2022-10-02T21:22:19.098Z,18.70
2022-10-02T21:24:45.909Z,19.75
2022-10-02T21:27:12.657Z,20.60
2022-10-02T21:29:39.417Z,21.00
2022-10-02T21:32:06.156Z,21.20
2022-10-02T21:34:32.906Z,21.42
2022-10-02T21:37:00.297Z,21.58
2022-10-02T21:39:27.094Z,21.87
2022-10-02T21:41:53.844Z,21.83
2022-10-02T21:44:20.608Z,21.91
2022-10-02T21:46:47.378Z,21.94
2022-10-02T21:49:14.334Z,21.93
2022-10-02T21:51:41.551Z,21.46
2022-10-02T21:54:08.559Z,18.71
2022-10-02T21:56:35.319Z,17.46
2022-10-02T21:59:02.084Z,18.77
2022-10-02T22:01:28.925Z,19.96
2022-10-02T22:03:56.356Z,20.61
2022-10-02T22:06:23.828Z,21.17
2022-10-02T22:08:51.471Z,21.35
2022-10-02T22:11:18.276Z,21.56
2022-10-02T22:13:45.087Z,21.63
2022-10-02T22:16:11.938Z,21.71
2022-10-02T22:18:39.229Z,21.64
2022-10-02T22:21:05.976Z,21.79
2022-10-02T22:23:32.758Z,21.92
2022-10-02T22:25:59.493Z,21.97
2022-10-02T22:28:27.933Z,20.81
2022-10-02T22:30:54.843Z,18.32
2022-10-02T22:33:21.607Z,17.44
2022-10-02T22:35:48.389Z,19.03
2022-10-02T22:38:15.230Z,20.08
2022-10-02T22:40:41.995Z,20.89
2022-10-02T22:43:08.748Z,21.08
2022-10-02T22:45:35.488Z,21.32
2022-10-02T22:48:02.239Z,21.50
2022-10-02T22:50:29.065Z,21.44
2022-10-02T22:52:55.840Z,21.74
2022-10-02T22:55:22.763Z,21.73
2022-10-02T22:57:49.753Z,21.77
2022-10-02T23:00:16.934Z,21.83
2022-10-02T23:02:43.843Z,21.92
2022-10-02T23:05:10.832Z,22.04
2022-10-02T23:07:37.713Z,22.29
2022-10-02T23:10:05.892Z,19.49
2022-10-02T23:12:36.577Z,17.91
2022-10-02T23:15:03.568Z,18.19
2022-10-02T23:17:30.345Z,19.57
2022-10-02T23:19:57.135Z,20.38
2022-10-02T23:22:23.925Z,20.98
2022-10-02T23:24:50.661Z,21.34
2022-10-02T23:27:17.444Z,21.33
2022-10-02T23:29:44.816Z,21.61
2022-10-02T23:32:11.617Z,21.63
2022-10-02T23:34:39.109Z,21.74
2022-10-02T23:37:06.885Z,21.74
2022-10-02T23:39:33.621Z,21.85
2022-10-02T23:42:00.440Z,22.04
2022-10-02T23:44:27.216Z,21.98
2022-10-02T23:46:53.959Z,20.84
2022-10-02T23:49:20.733Z,18.43
2022-10-02T23:51:47.480Z,17.43
2022-10-02T23:54:14.370Z,19.12
2022-10-02T23:56:41.273Z,20.04
2022-10-02T23:59:08.055Z,20.64
